Picacho, New Mexico
Current Conditions -  °F | °C
As of 10:31 AM on Thursday 23 Oct 2014 (Local Time) from KROW Reporting Station
Haze Haze  
Wind Chill: 60°   Ceiling: 300
Heat Index: 60°   Visibility: 4mi
Dew Point: 56°   Wind: 0mph
Humidity: 86%   Direction: NA
Pressure: 30.21"   Gusts: NA
Location:  33.41°N, 105.01°W
Report Text: KROW 231631Z 00000KT 4SM BR OVC003 16/13 A3021 RMK AO2 T01560133
Loading
Personal Weather Stations






























Interactive Weather Map New forecast layout! Learn more

10-Day Weather Forecast

Advertisements
Track Severe Weather on mobile